createdAt,value
2023-11-03T00:00:52.123Z,97648.84
2023-11-03T00:03:20.968Z,97628.47
2023-11-03T00:05:49.466Z,97646.75
2023-11-03T00:08:18.573Z,97637.41
2023-11-03T00:10:47.058Z,97635.13
2023-11-03T00:13:16.262Z,97645.09
2023-11-03T00:15:44.758Z,97641.44
2023-11-03T00:18:13.388Z,97646.59
2023-11-03T00:20:41.922Z,97641.91
2023-11-03T00:23:10.413Z,97652.44
2023-11-03T00:25:38.845Z,97662.69
2023-11-03T00:28:07.360Z,97671.38
2023-11-03T00:30:36.976Z,97665.34
2023-11-03T00:33:07.143Z,97674.97
2023-11-03T00:35:36.005Z,97668.13
2023-11-03T00:38:04.534Z,97677.19
2023-11-03T00:40:33.001Z,97677.56
2023-11-03T00:43:04.220Z,97694.03
2023-11-03T00:45:33.046Z,97678.41
2023-11-03T00:48:01.605Z,97678.47
2023-11-03T00:50:30.136Z,97689.47
2023-11-03T00:52:58.586Z,97690.66
2023-11-03T00:55:27.058Z,97707.03
2023-11-03T00:57:55.925Z,97697.81
2023-11-03T01:00:26.857Z,97700.44
2023-11-03T01:02:55.452Z,97703.56
2023-11-03T01:05:25.221Z,97706.72
2023-11-03T01:07:54.110Z,97719.28
2023-11-03T01:10:23.869Z,97732.47
2023-11-03T01:12:52.513Z,97719.56
2023-11-03T01:15:20.965Z,97721.63
2023-11-03T01:17:52.492Z,97729.69
2023-11-03T01:20:21.275Z,97729.63
2023-11-03T01:22:49.849Z,97723.97
2023-11-03T01:25:18.376Z,97729.66
2023-11-03T01:27:46.916Z,97736.34
2023-11-03T01:30:17.309Z,97747.97
2023-11-03T01:32:46.045Z,97748.25
2023-11-03T01:35:14.727Z,97734.38
2023-11-03T01:37:46.679Z,97741.69
2023-11-03T01:40:16.061Z,97728.16
2023-11-03T01:42:44.902Z,97749.16
2023-11-03T01:45:13.496Z,97738.97
2023-11-03T01:47:42.105Z,97740.13
2023-11-03T01:50:11.532Z,97749.84
2023-11-03T01:52:41.881Z,97738.63
2023-11-03T01:55:12.413Z,97746.56
2023-11-03T01:57:41.601Z,97752.06
2023-11-03T02:00:14.524Z,97766.16
2023-11-03T02:02:44.948Z,97764.38
2023-11-03T02:05:13.455Z,97773.34
2023-11-03T02:07:41.929Z,97774.66
2023-11-03T02:10:10.575Z,97776.03
2023-11-03T02:12:39.029Z,97774.09
2023-11-03T02:15:07.814Z,97788.44
2023-11-03T02:17:36.940Z,97782.94
2023-11-03T02:20:09.372Z,97785.91
2023-11-03T02:22:39.354Z,97784.31
2023-11-03T02:25:08.376Z,97801.19
2023-11-03T02:27:36.981Z,97797.84
2023-11-03T02:30:06.157Z,97800.56
2023-11-03T02:32:34.628Z,97795.13
2023-11-03T02:35:04.350Z,97801.25
2023-11-03T02:37:32.824Z,97798.19
2023-11-03T02:40:01.352Z,97803.31
2023-11-03T02:42:29.765Z,97812.47
2023-11-03T02:44:58.265Z,97817.56
2023-11-03T02:47:26.737Z,97820.56
2023-11-03T02:49:55.155Z,97806.59
2023-11-03T02:52:23.670Z,97811.31
2023-11-03T02:54:52.199Z,97814.06
2023-11-03T02:57:20.646Z,97824.56
2023-11-03T02:59:49.072Z,97832.59
2023-11-03T03:02:17.568Z,97832.16
2023-11-03T03:04:47.177Z,97825.16
2023-11-03T03:07:15.901Z,97830.44
2023-11-03T03:09:44.489Z,97834.50
2023-11-03T03:12:13.036Z,97834.78
2023-11-03T03:14:41.524Z,97836.09
2023-11-03T03:17:09.936Z,97833.44
2023-11-03T03:19:38.460Z,97836.22
2023-11-03T03:22:06.967Z,97851.00
2023-11-03T03:24:35.623Z,97841.72
2023-11-03T03:27:04.154Z,97838.09
2023-11-03T03:29:32.948Z,97852.84
2023-11-03T03:32:01.423Z,97836.09
2023-11-03T03:34:30.045Z,97846.81
2023-11-03T03:36:58.705Z,97855.44
2023-11-03T03:39:27.260Z,97850.22
2023-11-03T03:41:55.732Z,97861.69
2023-11-03T03:44:24.203Z,97870.88
2023-11-03T03:46:52.953Z,97872.19
2023-11-03T03:49:21.591Z,97865.69
2023-11-03T03:51:50.124Z,97883.06
2023-11-03T03:54:18.554Z,97885.25
2023-11-03T03:56:47.010Z,97889.50
2023-11-03T03:59:15.493Z,97886.03
2023-11-03T04:01:44.430Z,97897.47
2023-11-03T04:04:13.480Z,97893.81
2023-11-03T04:06:44.698Z,97889.72
2023-11-03T04:09:13.644Z,97899.03
2023-11-03T04:11:42.154Z,97905.97
2023-11-03T04:14:10.580Z,97904.84
2023-11-03T04:16:39.026Z,97902.72
2023-11-03T04:19:07.799Z,97900.13
2023-11-03T04:21:36.281Z,97905.66
2023-11-03T04:24:05.210Z,97909.53
2023-11-03T04:26:33.690Z,97911.09
2023-11-03T04:29:02.318Z,97919.00
2023-11-03T04:31:30.715Z,97924.31
2023-11-03T04:33:59.388Z,97909.47
2023-11-03T04:36:28.017Z,97931.97
2023-11-03T04:38:56.505Z,97926.81
2023-11-03T04:41:25.039Z,97933.69
2023-11-03T04:43:53.501Z,97922.16
2023-11-03T04:46:21.963Z,97921.75
2023-11-03T04:48:50.969Z,97936.44
2023-11-03T04:51:19.504Z,97923.72
2023-11-03T04:53:48.003Z,97927.03
2023-11-03T04:56:16.558Z,97926.81
2023-11-03T04:58:45.011Z,97931.69
2023-11-03T05:01:14.661Z,97917.88
2023-11-03T05:03:44.243Z,97924.97
2023-11-03T05:06:13.268Z,97927.97
2023-11-03T05:08:42.081Z,97927.19
2023-11-03T05:11:11.708Z,97925.09
2023-11-03T05:13:42.372Z,97924.47
2023-11-03T05:16:10.929Z,97920.16
2023-11-03T05:18:40.004Z,97925.25
2023-11-03T05:21:12.583Z,97929.53
2023-11-03T05:23:41.232Z,97924.50
2023-11-03T05:26:15.488Z,97929.25
2023-11-03T05:28:44.276Z,97931.56
2023-11-03T05:31:13.678Z,97923.56
2023-11-03T05:33:42.345Z,97939.81
2023-11-03T05:36:12.401Z,97941.94
2023-11-03T05:38:41.257Z,97938.69
2023-11-03T05:41:09.826Z,97937.50
2023-11-03T05:43:38.444Z,97943.50
2023-11-03T05:46:07.099Z,97943.97
2023-11-03T05:48:35.639Z,97951.22
2023-11-03T05:51:05.153Z,97947.50
2023-11-03T05:53:33.728Z,97942.94
2023-11-03T05:56:02.248Z,97946.06
2023-11-03T05:58:31.538Z,97956.81
2023-11-03T06:01:00.022Z,97964.84
2023-11-03T06:03:28.640Z,97964.25
2023-11-03T06:05:57.192Z,97968.91
2023-11-03T06:08:25.742Z,97969.47
2023-11-03T06:10:54.121Z,97982.59
2023-11-03T06:13:22.532Z,97989.31
2023-11-03T06:15:51.193Z,97987.81
2023-11-03T06:18:19.689Z,97996.72
2023-11-03T06:20:48.153Z,97994.91
2023-11-03T06:23:17.589Z,98003.88
2023-11-03T06:25:46.052Z,98009.66
2023-11-03T06:28:14.766Z,98012.69
2023-11-03T06:30:44.060Z,98017.19
2023-11-03T06:33:12.669Z,98029.88
2023-11-03T06:35:41.118Z,98027.66
2023-11-03T06:38:09.651Z,98020.19
2023-11-03T06:40:38.205Z,98028.06
2023-11-03T06:43:07.330Z,98028.41
2023-11-03T06:45:35.981Z,98038.34
2023-11-03T06:48:04.643Z,98037.97
2023-11-03T06:50:33.188Z,98052.66
2023-11-03T06:53:01.671Z,98054.03
2023-11-03T06:55:31.077Z,98050.69
2023-11-03T06:57:59.645Z,98047.78
2023-11-03T07:00:28.437Z,98048.47
2023-11-03T07:02:57.808Z,98056.66
2023-11-03T07:05:26.811Z,98055.13
2023-11-03T07:07:56.207Z,98054.19
2023-11-03T07:10:25.766Z,98068.06
2023-11-03T07:12:54.473Z,98078.03
2023-11-03T07:15:23.765Z,98072.88
2023-11-03T07:17:52.853Z,98079.56
2023-11-03T07:20:21.348Z,98087.81
2023-11-03T07:22:50.526Z,98090.81
2023-11-03T07:25:20.945Z,98089.59
2023-11-03T07:27:49.472Z,98089.84
2023-11-03T07:30:18.012Z,98092.09
2023-11-03T07:32:46.737Z,98095.34
2023-11-03T07:35:15.839Z,98112.72
2023-11-03T07:37:44.478Z,98105.44
2023-11-03T07:40:15.865Z,98104.53
2023-11-03T07:42:44.539Z,98109.78
2023-11-03T07:45:14.602Z,98113.75
2023-11-03T07:47:43.119Z,98118.50
2023-11-03T07:50:11.786Z,98118.91
2023-11-03T07:52:40.267Z,98132.63
2023-11-03T07:55:09.056Z,98125.38
2023-11-03T07:57:39.801Z,98134.75
2023-11-03T08:00:10.895Z,98136.53
2023-11-03T08:02:39.635Z,98138.13
2023-11-03T08:05:09.336Z,98145.91
2023-11-03T08:07:38.706Z,98142.13
2023-11-03T08:10:12.270Z,98138.06
2023-11-03T08:12:41.073Z,98146.31
2023-11-03T08:15:15.004Z,98150.94
2023-11-03T08:17:45.746Z,98149.97
2023-11-03T08:20:17.186Z,98156.66
2023-11-03T08:22:49.372Z,98162.81
2023-11-03T08:25:19.129Z,98153.28
2023-11-03T08:27:47.968Z,98156.28
2023-11-03T08:30:16.675Z,98164.09
2023-11-03T08:32:47.962Z,98164.50
2023-11-03T08:35:16.988Z,98161.94
2023-11-03T08:37:45.644Z,98164.28
2023-11-03T08:40:17.796Z,98159.28
2023-11-03T08:42:47.958Z,98167.91
2023-11-03T08:45:18.536Z,98174.16
2023-11-03T08:47:47.562Z,98179.59
2023-11-03T08:50:17.237Z,98182.75
2023-11-03T08:52:46.549Z,98190.41
2023-11-03T08:55:15.650Z,98179.88
2023-11-03T08:57:44.530Z,98186.69
2023-11-03T09:00:17.489Z,98180.06
2023-11-03T09:02:47.579Z,98189.41
2023-11-03T09:05:17.358Z,98193.13
2023-11-03T09:07:46.868Z,98201.53
2023-11-03T09:10:16.668Z,98212.25
2023-11-03T09:12:45.591Z,98194.69
2023-11-03T09:15:14.206Z,98214.31
2023-11-03T09:17:45.841Z,98208.63
2023-11-03T09:20:16.256Z,98213.50
2023-11-03T09:22:45.166Z,98204.81
2023-11-03T09:25:13.854Z,98211.59
2023-11-03T09:27:43.117Z,98216.03
2023-11-03T09:30:12.088Z,98220.25
2023-11-03T09:32:44.309Z,98210.25
2023-11-03T09:35:12.686Z,98207.47
2023-11-03T09:37:41.427Z,98218.03
2023-11-03T09:40:11.337Z,98228.69
2023-11-03T09:42:42.533Z,98228.84
2023-11-03T09:45:16.583Z,98235.78
2023-11-03T09:47:47.713Z,98238.50
2023-11-03T09:50:16.501Z,98244.09
2023-11-03T09:52:50.636Z,98250.81
2023-11-03T09:55:21.377Z,98264.81
2023-11-03T09:57:56.170Z,98263.72
2023-11-03T10:00:26.633Z,98259.91
2023-11-03T10:02:55.490Z,98267.53
2023-11-03T10:05:26.624Z,98269.28
2023-11-03T10:08:10.525Z,98274.47
2023-11-03T10:10:40.301Z,98275.00
2023-11-03T10:13:10.612Z,98274.09
2023-11-03T10:15:41.268Z,98279.56
2023-11-03T10:18:11.439Z,98278.59
2023-11-03T10:20:42.556Z,98280.94
2023-11-03T10:23:11.373Z,98281.31
2023-11-03T10:25:40.417Z,98298.19
2023-11-03T10:28:09.539Z,98294.44
2023-11-03T10:30:38.629Z,98299.94
2023-11-03T10:33:07.982Z,98307.03
2023-11-03T10:35:36.850Z,98307.63
2023-11-03T10:38:05.391Z,98304.88
2023-11-03T10:40:34.013Z,98318.25
2023-11-03T10:43:06.551Z,98320.50
2023-11-03T10:45:39.300Z,98317.53
2023-11-03T10:48:17.694Z,98311.09
2023-11-03T10:51:00.972Z,98319.47
2023-11-03T10:54:02.344Z,98324.00
2023-11-03T10:56:48.534Z,98315.72
2023-11-03T10:59:30.226Z,98321.25
2023-11-03T11:02:12.219Z,98325.59
2023-11-03T11:04:53.149Z,98330.75
2023-11-03T11:07:23.988Z,98332.97
2023-11-03T11:09:54.162Z,98337.34
2023-11-03T11:12:22.629Z,98341.13
2023-11-03T11:14:52.876Z,98337.81
2023-11-03T11:17:24.284Z,98338.97
2023-11-03T11:19:53.517Z,98345.16
2023-11-03T11:22:24.928Z,98353.94
2023-11-03T11:24:55.732Z,98351.09
2023-11-03T11:27:27.298Z,98355.94
2023-11-03T11:30:15.825Z,98352.97
2023-11-03T11:32:52.692Z,98344.88
2023-11-03T11:35:24.462Z,98360.06
2023-11-03T11:37:53.026Z,98349.25
2023-11-03T11:40:21.553Z,98348.81
2023-11-03T11:42:50.559Z,98356.03
2023-11-03T11:45:19.875Z,98364.47
2023-11-03T11:47:49.463Z,98366.16
2023-11-03T11:50:19.116Z,98370.59
2023-11-03T11:52:52.054Z,98391.03
2023-11-03T11:55:20.975Z,98384.31
2023-11-03T11:57:51.832Z,98384.31
2023-11-03T12:00:21.390Z,98379.22
2023-11-03T12:02:55.076Z,98384.09
2023-11-03T12:05:25.406Z,98395.78
2023-11-03T12:07:56.172Z,98395.34
2023-11-03T12:10:25.902Z,98389.97
2023-11-03T12:12:54.399Z,98405.41
2023-11-03T12:15:22.881Z,98397.13
2023-11-03T12:17:51.448Z,98404.41
2023-11-03T12:20:21.069Z,98402.50
2023-11-03T12:22:49.651Z,98412.06
2023-11-03T12:25:18.356Z,98410.25
2023-11-03T12:27:55.230Z,98411.34
2023-11-03T12:30:23.819Z,98418.78
2023-11-03T12:32:52.804Z,98412.69
2023-11-03T12:35:21.611Z,98408.94
2023-11-03T12:37:50.326Z,98412.34
2023-11-03T12:40:24.099Z,98416.69
2023-11-03T12:42:54.532Z,98415.03
2023-11-03T12:45:23.168Z,98419.88
2023-11-03T12:47:52.069Z,98416.50
2023-11-03T12:50:27.491Z,98420.13
2023-11-03T12:52:55.948Z,98430.38
2023-11-03T12:55:27.463Z,98413.09
2023-11-03T12:57:58.404Z,98432.28
2023-11-03T13:00:32.769Z,98429.03
2023-11-03T13:03:01.476Z,98439.94
2023-11-03T13:05:30.427Z,98441.97
2023-11-03T13:08:01.967Z,98440.06
2023-11-03T13:10:33.251Z,98433.53
2023-11-03T13:13:02.149Z,98430.81
2023-11-03T13:15:32.102Z,98429.25
2023-11-03T13:18:01.084Z,98430.47
2023-11-03T13:20:29.707Z,98434.88
2023-11-03T13:23:03.077Z,98432.09
2023-11-03T13:25:31.712Z,98439.09
2023-11-03T13:28:00.537Z,98427.13
2023-11-03T13:30:29.094Z,98438.72
2023-11-03T13:32:57.826Z,98440.81
2023-11-03T13:35:27.442Z,98433.84
2023-11-03T13:37:56.125Z,98454.09
2023-11-03T13:40:27.244Z,98448.22
2023-11-03T13:42:57.727Z,98447.38
2023-11-03T13:45:26.264Z,98442.47
2023-11-03T13:47:56.356Z,98446.88
2023-11-03T13:50:25.803Z,98447.25
2023-11-03T13:52:54.573Z,98457.97
2023-11-03T13:55:25.144Z,98449.22
2023-11-03T13:57:57.615Z,98458.16
2023-11-03T14:00:28.117Z,98453.28
2023-11-03T14:02:56.650Z,98460.50
2023-11-03T14:05:25.311Z,98462.22
2023-11-03T14:07:56.745Z,98471.50
2023-11-03T14:10:25.371Z,98461.97
2023-11-03T14:12:53.877Z,98465.78
2023-11-03T14:15:24.279Z,98483.22
2023-11-03T14:17:53.274Z,98480.81
2023-11-03T14:20:22.818Z,98472.34
2023-11-03T14:22:51.312Z,98469.59
2023-11-03T14:25:19.935Z,98467.78
2023-11-03T14:27:49.810Z,98467.59
2023-11-03T14:30:21.543Z,98474.97
2023-11-03T14:32:50.069Z,98473.66
2023-11-03T14:35:18.782Z,98471.41
2023-11-03T14:37:48.461Z,98480.81
2023-11-03T14:40:18.592Z,98487.78
2023-11-03T14:42:48.679Z,98479.84
2023-11-03T14:45:21.057Z,98490.31
2023-11-03T14:47:50.290Z,98491.25
2023-11-03T14:50:20.267Z,98484.16
2023-11-03T14:52:49.373Z,98496.06
2023-11-03T14:55:18.341Z,98493.50
2023-11-03T14:57:47.201Z,98494.53
2023-11-03T15:00:17.707Z,98490.91
2023-11-03T15:02:49.458Z,98496.88
2023-11-03T15:05:18.571Z,98501.34
2023-11-03T15:07:47.285Z,98500.38
2023-11-03T15:10:16.818Z,98501.13
2023-11-03T15:12:45.902Z,98514.19
2023-11-03T15:15:16.968Z,98516.34
2023-11-03T15:17:46.326Z,98516.97
2023-11-03T15:20:16.085Z,98510.28
2023-11-03T15:22:45.942Z,98528.31
2023-11-03T15:25:17.087Z,98521.19
2023-11-03T15:27:50.640Z,98514.47
2023-11-03T15:30:20.979Z,98528.97
2023-11-03T15:32:50.400Z,98527.22
2023-11-03T15:35:22.105Z,98516.31
2023-11-03T15:37:50.690Z,98517.63
2023-11-03T15:40:20.716Z,98516.25
2023-11-03T15:42:49.773Z,98520.94
2023-11-03T15:45:18.845Z,98522.94
2023-11-03T15:47:49.154Z,98522.84
2023-11-03T15:50:20.504Z,98532.47
2023-11-03T15:52:51.681Z,98529.69
2023-11-03T15:55:20.599Z,98540.94
2023-11-03T15:57:51.561Z,98542.81
2023-11-03T16:00:24.105Z,98543.00
2023-11-03T16:02:53.062Z,98544.38
2023-11-03T16:05:21.741Z,98550.03
2023-11-03T16:07:50.619Z,98544.91
2023-11-03T16:10:20.063Z,98550.00
2023-11-03T16:12:49.078Z,98542.00
2023-11-03T16:15:18.170Z,98545.78
2023-11-03T16:17:47.060Z,98560.75
2023-11-03T16:20:18.371Z,98564.44
2023-11-03T16:22:47.626Z,98565.25
2023-11-03T16:25:16.772Z,98569.88
2023-11-03T16:27:45.475Z,98568.78
2023-11-03T16:30:17.791Z,98568.53
2023-11-03T16:32:48.478Z,98579.03
2023-11-03T16:35:17.182Z,98571.09
2023-11-03T16:37:45.723Z,98580.25
2023-11-03T16:40:14.521Z,98569.56
2023-11-03T16:42:45.308Z,98571.19
2023-11-03T16:45:14.191Z,98578.94
2023-11-03T16:47:43.386Z,98579.09
2023-11-03T16:50:13.178Z,98574.81
2023-11-03T16:52:42.148Z,98582.41
2023-11-03T16:55:15.435Z,98576.78
2023-11-03T16:57:44.924Z,98580.91
2023-11-03T17:00:19.424Z,98588.13
2023-11-03T17:02:52.764Z,98592.53
2023-11-03T17:05:22.404Z,98597.75
2023-11-03T17:07:51.490Z,98594.91
2023-11-03T17:10:20.063Z,98596.63
2023-11-03T17:12:57.051Z,98602.69
2023-11-03T17:15:30.889Z,98586.06
2023-11-03T17:18:01.004Z,98593.22
2023-11-03T17:20:30.213Z,98599.63
2023-11-03T17:23:03.480Z,98604.50
2023-11-03T17:25:32.242Z,98601.28
2023-11-03T17:28:00.834Z,98602.47
2023-11-03T17:30:29.550Z,98606.75
2023-11-03T17:32:58.369Z,98608.22
2023-11-03T17:35:27.324Z,98603.44
2023-11-03T17:37:59.739Z,98607.09
2023-11-03T17:40:30.305Z,98605.72
2023-11-03T17:43:00.017Z,98609.41
2023-11-03T17:45:28.791Z,98603.69
2023-11-03T17:48:00.602Z,98607.47
2023-11-03T17:50:29.362Z,98600.78
2023-11-03T17:52:57.785Z,98619.00
2023-11-03T17:55:26.916Z,98616.94
2023-11-03T17:57:56.063Z,98618.78
2023-11-03T18:00:25.835Z,98624.56
2023-11-03T18:02:55.148Z,98631.13
2023-11-03T18:05:25.360Z,98621.44
2023-11-03T18:07:54.190Z,98617.56
2023-11-03T18:10:23.277Z,98619.16
2023-11-03T18:12:53.707Z,98624.50
2023-11-03T18:15:24.217Z,98625.22
2023-11-03T18:17:53.755Z,98624.00
2023-11-03T18:20:24.404Z,98622.88
2023-11-03T18:22:53.741Z,98620.34
2023-11-03T18:25:23.974Z,98618.91
2023-11-03T18:27:52.493Z,98615.25
2023-11-03T18:30:23.497Z,98623.81
2023-11-03T18:32:54.130Z,98612.59
2023-11-03T18:35:22.790Z,98608.25
2023-11-03T18:37:51.302Z,98603.25
2023-11-03T18:40:23.268Z,98608.16
2023-11-03T18:42:52.027Z,98613.66
2023-11-03T18:45:20.705Z,98607.88
2023-11-03T18:47:49.223Z,98599.44
2023-11-03T18:52:52.025Z,98609.06
2023-11-03T18:56:22.532Z,98601.97
2023-11-03T18:58:48.014Z,98599.84
2023-11-03T19:02:10.989Z,98595.38
2023-11-03T19:08:49.737Z,98593.22
2023-11-03T19:11:22.227Z,98600.72
2023-11-03T19:13:51.914Z,98601.78
2023-11-03T19:16:20.402Z,98592.84
2023-11-03T19:18:49.044Z,98596.22
2023-11-03T19:21:18.140Z,98608.97
2023-11-03T19:23:46.645Z,98607.06
2023-11-03T19:26:15.244Z,98603.84
2023-11-03T19:28:48.219Z,98609.34
2023-11-03T19:31:17.713Z,98600.78
2023-11-03T19:33:46.326Z,98591.19
2023-11-03T19:36:21.391Z,98585.44
2023-11-03T19:38:50.666Z,98592.06
2023-11-03T19:41:19.656Z,98592.28
2023-11-03T19:43:48.158Z,98585.75
2023-11-03T19:46:16.815Z,98584.56
2023-11-03T19:48:47.394Z,98582.28
2023-11-03T19:51:17.890Z,98578.75
2023-11-03T19:53:46.396Z,98572.50
2023-11-03T19:56:14.942Z,98576.28
2023-11-03T19:58:43.446Z,98577.34
2023-11-03T20:01:11.898Z,98576.59
2023-11-03T20:03:41.108Z,98581.16
2023-11-03T20:06:12.190Z,98588.19
2023-11-03T20:08:42.585Z,98590.44
2023-11-03T20:11:11.401Z,98588.25
2023-11-03T20:13:40.808Z,98583.81
2023-11-03T20:16:13.077Z,98588.50
2023-11-03T20:18:41.909Z,98589.19
2023-11-03T20:21:10.439Z,98593.06
2023-11-03T20:23:39.544Z,98600.28
2023-11-03T20:26:08.133Z,98594.47
2023-11-03T20:28:37.201Z,98595.50
2023-11-03T20:31:05.842Z,98591.41
2023-11-03T20:33:34.511Z,98600.13
2023-11-03T20:36:03.217Z,98585.00
2023-11-03T20:38:31.728Z,98581.69
2023-11-03T20:41:00.544Z,98587.09
2023-11-03T20:43:30.106Z,98577.41
2023-11-03T20:45:59.077Z,98577.34
2023-11-03T20:48:28.736Z,98576.31
2023-11-03T20:50:57.300Z,98573.03
2023-11-03T20:53:26.051Z,98574.16
2023-11-03T20:55:54.617Z,98573.56
2023-11-03T20:58:23.207Z,98559.94
2023-11-03T21:00:53.766Z,98560.53
2023-11-03T21:03:23.591Z,98552.31
2023-11-03T21:05:54.045Z,98548.91
2023-11-03T21:08:22.570Z,98544.47
2023-11-03T21:10:51.776Z,98553.47
2023-11-03T21:13:20.288Z,98551.59
2023-11-03T21:15:49.782Z,98554.03
2023-11-03T21:18:18.655Z,98565.94
2023-11-03T21:20:47.252Z,98555.44
2023-11-03T21:23:15.748Z,98562.69
2023-11-03T21:25:44.344Z,98560.50
2023-11-03T21:28:14.471Z,98559.47
2023-11-03T21:30:43.962Z,98560.50
2023-11-03T21:33:12.560Z,98564.84
2023-11-03T21:35:41.063Z,98559.78
2023-11-03T21:38:09.523Z,98549.13
2023-11-03T21:40:37.942Z,98557.88
2023-11-03T21:43:06.934Z,98562.22
2023-11-03T21:45:36.142Z,98558.97
2023-11-03T21:48:06.212Z,98561.16
2023-11-03T21:50:34.834Z,98554.31
2023-11-03T21:53:03.210Z,98545.59
2023-11-03T21:55:31.977Z,98548.59
2023-11-03T21:58:01.288Z,98551.34
2023-11-03T22:00:29.749Z,98543.25
2023-11-03T22:02:58.309Z,98539.97
2023-11-03T22:05:26.927Z,98546.75
2023-11-03T22:07:56.183Z,98553.81
2023-11-03T22:10:24.955Z,98547.84
2023-11-03T22:12:53.695Z,98539.94
2023-11-03T22:15:22.189Z,98536.72
2023-11-03T22:17:56.226Z,98535.06
2023-11-03T22:20:26.769Z,98535.88
2023-11-03T22:22:56.236Z,98546.22
2023-11-03T22:25:24.977Z,98542.69
2023-11-03T22:27:53.680Z,98542.16
2023-11-03T22:30:22.415Z,98530.16
2023-11-03T22:32:51.110Z,98535.84
2023-11-03T22:35:20.098Z,98525.59
2023-11-03T22:37:48.580Z,98521.78
2023-11-03T22:40:17.246Z,98518.50
2023-11-03T22:42:46.560Z,98514.13
2023-11-03T22:45:15.298Z,98512.75
2023-11-03T22:47:43.892Z,98508.47
2023-11-03T22:50:15.592Z,98506.28
2023-11-03T22:52:44.228Z,98504.63
2023-11-03T22:55:13.489Z,98509.84
2023-11-03T22:57:42.399Z,98514.13
2023-11-03T23:00:12.861Z,98509.81
2023-11-03T23:02:42.043Z,98508.44
2023-11-03T23:05:10.691Z,98515.75
2023-11-03T23:07:39.452Z,98510.03
2023-11-03T23:10:12.923Z,98517.16
2023-11-03T23:12:42.501Z,98512.00
2023-11-03T23:15:12.053Z,98512.31
2023-11-03T23:17:43.849Z,98513.06
2023-11-03T23:20:17.120Z,98501.69
2023-11-03T23:22:46.177Z,98515.75
2023-11-03T23:25:14.932Z,98519.28
2023-11-03T23:27:44.304Z,98511.69
2023-11-03T23:30:13.400Z,98505.19
2023-11-03T23:32:42.254Z,98509.81
2023-11-03T23:35:11.011Z,98498.72
2023-11-03T23:37:39.543Z,98490.28
2023-11-03T23:40:10.079Z,98500.56
2023-11-03T23:42:39.680Z,98491.63
2023-11-03T23:45:09.024Z,98482.38
2023-11-03T23:47:38.046Z,98482.84
2023-11-03T23:50:08.533Z,98475.59
2023-11-03T23:52:37.146Z,98486.44
2023-11-03T23:55:06.907Z,98479.16
2023-11-03T23:57:35.539Z,98482.94
